Wilmer, AL (36587)

4:24 PM CDT on July 30, 2016 (GMT -0500)
Breckenridge Subdivision | | Change Station

Elev 194 ft 30.69 °N, 88.28 °W | Updated 1 second ago

Scattered Clouds
Scattered Clouds
92.0 °F
Feels Like 108 °F
N
0.0
Wind Variable Wind from SSW
Gusts 4.0 mph

Today
High -- | Low -- °F
--% Chance of Precip.
Yesterday
High -- | Low -- °F
Precip. -- in
Pressure 29.99 in
Visibility 10.0 miles
Clouds Scattered Clouds 4500 ft
Scattered Clouds 25000 ft
Heat Index 108 °F
Dew Point 79 °F
Humidity 65%
Rainfall 0.00 in
Snow Depth Not available.
6:09 AM 7:49 PM
Waning Crescent, 11% visible
METAR KMOB 302056Z 21006KT 10SM SCT045CB SCT250 33/22 A3000 RMK AO2 SLP156 CB ALQDS MOV N TCU W T03330217 56016
Pressure 29.99 in
Visibility 10.0 miles
Clouds Scattered Clouds 4500 ft
Scattered Clouds 25000 ft
Heat Index 108 °F
Dew Point 79 °F
Humidity 65%
Rainfall 0.00 in
Snow Depth Not available.
6:09 AM 7:49 PM
Waning Crescent, 11% visible
METAR KMOB 302056Z 21006KT 10SM SCT045CB SCT250 33/22 A3000 RMK AO2 SLP156 CB ALQDS MOV N TCU W T03330217 56016

10-Day Weather Forecast

Almanac

Astronomy

Jul. 30, 2016 Rise Set
Actual Time
Civil Twilight
Nautical Twilight
Astronomical Twilight
Moon
Length of Visible Light
Length of Day
Tomorrow will be .
, % of the Moon is Illuminated

Today's Extremes

State Highs State Lows

Community

WunderPhotos

Upload Photos

1,928,648 photos uploaded!

WunderBlog® & News

Nearby

Air Quality

  Air Quality AQ Index Pollutant
Not available.

Snow Depth

Station Depth Elevation

Earthquake Activity

City Distance Mag. Time & Date
Minimum magnitude displayed is 2.5.

Coastal Water Temperatures

Place Temperature

Stations

Nearby Weather Stations

Station Location Temp. Windchill Dew Point Humidity Wind Precip. Elev Updated Type
                   

Watches & Warnings

There are currently no watches in effect.